Time;durP1;ratioP1;P1;durP2;ratioP2;P2;SDS_P1;SDS_P2;PMS_P1;PMS_P2;Temp;Humidity;BMP_temperature;BMP_pressure;BME280_temperature;BME280_humidity;BME280_pressure;Samples;Min_cycle;Max_cycle;Signal;HPM_P1;HPM_P2
2022/03/29 00:00:22;;;;;;;17.13;8.82;;;8.90;25.20;;;;;;5089390;27;35792;-75
2022/03/29 00:02:48;;;;;;;19.88;10.73;;;9.00;25.20;;;;;;5124171;27;34141;-76
2022/03/29 00:05:14;;;;;;;15.85;9.02;;;9.00;25.40;;;;;;5123485;27;34287;-76
2022/03/29 00:07:40;;;;;;;16.13;8.82;;;9.00;25.40;;;;;;5123096;27;34281;-76
2022/03/29 00:10:07;;;;;;;15.15;8.70;;;8.90;25.50;;;;;;5105361;27;35698;-76
2022/03/29 00:13:19;;;;;;;17.80;9.02;;;8.90;25.50;;;;;;5105407;27;34252;-76
2022/03/29 00:15:45;;;;;;;19.58;8.93;;;8.90;29.30;;;;;;5108497;27;34830;-76
2022/03/29 00:18:11;;;;;;;15.00;8.73;;;8.90;25.70;;;;;;5105978;27;34373;-76
2022/03/29 00:20:37;;;;;;;16.58;9.20;;;8.90;25.80;;;;;;5088763;27;35986;-76
2022/03/29 00:23:03;;;;;;;13.90;8.43;;;8.90;26.00;;;;;;5105823;27;34408;-76
2022/03/29 00:25:30;;;;;;;19.65;9.60;;;8.90;26.00;;;;;;5106004;27;34173;-76
2022/03/29 00:27:55;;;;;;;19.85;9.10;;;8.90;26.10;;;;;;5106010;27;34450;-76
2022/03/29 00:30:21;;;;;;;18.45;9.60;;;8.80;26.00;;;;;;5105364;27;35875;-76
2022/03/29 00:32:47;;;;;;;18.52;8.98;;;8.80;26.30;;;;;;5124402;27;34213;-76
2022/03/29 00:35:13;;;;;;;20.13;8.90;;;8.80;26.40;;;;;;5088818;27;34264;-76
2022/03/29 00:37:41;;;;;;;18.50;9.48;;;8.80;26.50;;;;;;5106215;27;34432;-76
2022/03/29 00:40:09;;;;;;;16.77;9.32;;;8.80;26.90;;;;;;5105050;27;35550;-76
2022/03/29 00:42:35;;;;;;;20.63;9.13;;;8.70;27.00;;;;;;5123739;27;34252;-76
2022/03/29 00:45:02;;;;;;;16.23;9.35;;;8.70;26.90;;;;;;5089169;27;34367;-76
2022/03/29 00:47:28;;;;;;;17.45;9.13;;;8.70;27.00;;;;;;5105810;27;34523;-76
2022/03/29 00:49:54;;;;;;;17.35;9.88;;;8.70;27.20;;;;;;5105171;27;36062;-76
2022/03/29 00:52:21;;;;;;;20.42;10.38;;;8.70;27.20;;;;;;5105629;27;34341;-76
2022/03/29 00:54:48;;;;;;;17.58;9.95;;;8.70;27.30;;;;;;5105425;27;34187;-76
2022/03/29 00:57:14;;;;;;;20.13;9.48;;;8.70;27.30;;;;;;5105682;27;34103;-76
2022/03/29 00:59:42;;;;;;;20.90;10.30;;;8.70;27.30;;;;;;5124091;27;34357;-76
2022/03/29 01:02:09;;;;;;;18.38;10.00;;;8.70;27.40;;;;;;5105009;27;34259;-76
2022/03/29 01:04:35;;;;;;;16.20;9.50;;;8.70;27.70;;;;;;5123648;27;34266;-76
2022/03/29 01:07:01;;;;;;;20.80;9.85;;;8.60;27.70;;;;;;5123282;27;34418;-76
2022/03/29 01:09:30;;;;;;;16.88;10.07;;;8.60;27.70;;;;;;5088172;27;36626;-76
2022/03/29 01:11:57;;;;;;;17.17;9.90;;;8.60;27.80;;;;;;5104832;27;34371;-76
2022/03/29 01:14:25;;;;;;;16.45;9.73;;;8.60;27.80;;;;;;5105527;27;34279;-76
2022/03/29 01:19:35;;;;;;;20.10;10.00;;;8.60;27.70;;;;;;5123007;27;34192;-76
2022/03/29 01:22:05;;;;;;;17.85;10.27;;;8.60;27.70;;;;;;5123886;27;34260;-76
2022/03/29 01:24:34;;;;;;;17.13;10.20;;;8.50;28.10;;;;;;5112252;27;34103;-76
2022/03/29 01:27:04;;;;;;;20.95;10.20;;;8.50;27.80;;;;;;5095470;27;34140;-76
2022/03/29 01:29:31;;;;;;;16.88;10.35;;;8.50;27.90;;;;;;5094395;27;36480;-76
2022/03/29 01:31:58;;;;;;;18.75;9.15;;;8.50;27.80;;;;;;5130031;27;34012;-76
2022/03/29 01:34:25;;;;;;;20.20;10.52;;;8.50;28.00;;;;;;5129966;27;34114;-76
2022/03/29 01:36:51;;;;;;;16.73;9.82;;;8.50;28.10;;;;;;5112092;27;34194;-76
2022/03/29 01:39:17;;;;;;;14.77;8.77;;;8.40;28.10;;;;;;5111038;27;36139;-77
2022/03/29 01:41:43;;;;;;;17.20;9.10;;;8.40;28.30;;;;;;5111598;27;34408;-76
2022/03/29 01:44:10;;;;;;;15.27;9.50;;;8.40;28.50;;;;;;5111412;27;34176;-76
2022/03/29 01:46:37;;;;;;;21.58;10.52;;;8.30;28.70;;;;;;5111191;27;34298;-76
2022/03/29 01:49:04;;;;;;;15.52;10.00;;;8.30;28.90;;;;;;5111224;27;34322;-76
2022/03/29 01:51:31;;;;;;;25.15;9.85;;;8.30;29.10;;;;;;5111660;27;34272;-76
2022/03/29 01:54:00;;;;;;;20.73;9.88;;;8.20;29.10;;;;;;5110900;27;34194;-76
2022/03/29 01:56:27;;;;;;;20.98;10.85;;;8.20;29.20;;;;;;5111623;27;34578;-76
2022/03/29 01:58:54;;;;;;;18.55;10.27;;;8.20;29.20;;;;;;5111177;27;36431;-76
2022/03/29 02:01:20;;;;;;;21.55;10.60;;;8.10;29.20;;;;;;5111316;27;34176;-76
2022/03/29 02:03:45;;;;;;;20.42;10.60;;;8.10;29.40;;;;;;5111126;27;34147;-76
2022/03/29 02:06:11;;;;;;;18.42;10.68;;;8.10;29.40;;;;;;5111567;27;34126;-76
2022/03/29 02:08:37;;;;;;;15.43;8.77;;;8.10;29.40;;;;;;5094158;27;35769;-76
2022/03/29 02:11:03;;;;;;;23.60;9.75;;;8.10;29.60;;;;;;5094473;27;34389;-76
2022/03/29 02:13:29;;;;;;;18.23;9.95;;;8.10;29.80;;;;;;5111318;27;34484;-76
2022/03/29 02:15:55;;;;;;;18.20;10.02;;;8.00;29.80;;;;;;5110844;27;34371;-76
2022/03/29 02:18:21;;;;;;;19.05;10.18;;;8.00;29.80;;;;;;5129573;27;34682;-76
2022/03/29 02:20:47;;;;;;;19.55;10.82;;;8.00;29.80;;;;;;5110872;27;34425;-76
2022/03/29 02:23:15;;;;;;;20.67;10.73;;;8.00;29.90;;;;;;5111528;27;34109;-76
2022/03/29 02:25:42;;;;;;;20.42;10.50;;;8.00;29.90;;;;;;5111460;27;34567;-76
2022/03/29 02:28:08;;;;;;;18.13;9.73;;;8.00;29.80;;;;;;5093954;27;35575;-76
2022/03/29 02:30:36;;;;;;;20.70;10.32;;;8.00;29.80;;;;;;5129537;27;34277;-76
2022/03/29 02:33:04;;;;;;;17.73;10.43;;;8.00;30.00;;;;;;5110582;27;34364;-76
2022/03/29 02:35:30;;;;;;;20.27;10.35;;;8.00;30.50;;;;;;5089222;27;34255;-76
2022/03/29 02:37:56;;;;;;;17.65;10.18;;;8.00;30.30;;;;;;5107257;27;35872;-76
2022/03/29 02:40:22;;;;;;;18.20;10.23;;;8.00;30.40;;;;;;5107686;27;34202;-76
2022/03/29 02:42:51;;;;;;;19.95;10.48;;;8.00;30.30;;;;;;5108791;27;34364;-76
2022/03/29 02:45:19;;;;;;;23.52;11.23;;;8.00;30.50;;;;;;5090836;27;34438;-76
2022/03/29 02:47:48;;;;;;;17.08;10.20;;;8.00;30.60;;;;;;5090301;27;36379;-76
2022/03/29 02:50:15;;;;;;;21.08;11.23;;;8.00;30.60;;;;;;5107863;27;34268;-76
2022/03/29 02:52:50;;;;;;;21.98;10.85;;;8.00;30.60;;;;;;5090293;27;34189;-76
2022/03/29 02:55:18;;;;;;;18.42;9.45;;;8.00;32.40;;;;;;5090544;27;34286;-76
2022/03/29 02:57:45;;;;;;;21.90;10.52;;;7.90;30.90;;;;;;5107135;27;36021;-76
2022/03/29 03:00:15;;;;;;;21.75;10.85;;;7.90;30.70;;;;;;5106437;27;34262;-76
2022/03/29 03:02:57;;;;;;;23.90;10.30;;;7.90;30.80;;;;;;5107033;27;34327;-76
2022/03/29 03:05:24;;;;;;;17.52;9.75;;;7.90;32.70;;;;;;5107660;27;34451;-76
2022/03/29 03:07:50;;;;;;;18.75;10.45;;;7.90;30.70;;;;;;5107119;27;35669;-76
2022/03/29 03:10:17;;;;;;;20.10;10.80;;;7.90;30.60;;;;;;5107102;27;34072;-76
2022/03/29 03:12:46;;;;;;;18.23;10.23;;;7.90;30.80;;;;;;5107170;27;34178;-76
2022/03/29 03:15:14;;;;;;;18.63;10.48;;;7.90;31.10;;;;;;5106414;27;34106;-76
2022/03/29 03:17:40;;;;;;;20.92;9.93;;;7.90;30.90;;;;;;5106722;27;35507;-76
2022/03/29 03:28:18;;;;;;;20.20;9.80;;;7.80;31.00;;;;;;5100140;27;62676;-76
2022/03/29 03:30:44;;;;;;;22.17;10.77;;;7.70;31.20;;;;;;5093925;27;34222;-76
2022/03/29 03:33:10;;;;;;;18.05;10.27;;;7.70;31.20;;;;;;5127282;27;34412;-76
2022/03/29 03:35:36;;;;;;;16.40;9.90;;;7.70;31.20;;;;;;5126962;27;34254;-76
2022/03/29 03:38:02;;;;;;;18.42;10.30;;;7.70;31.30;;;;;;5126594;27;35558;-76
2022/03/29 03:40:28;;;;;;;17.77;9.60;;;7.60;31.30;;;;;;5110213;27;34228;-76
2022/03/29 03:42:54;;;;;;;15.50;9.40;;;7.60;31.30;;;;;;5145609;27;34337;-76
2022/03/29 03:45:20;;;;;;;17.10;10.02;;;7.60;31.30;;;;;;5126889;27;34205;-76
2022/03/29 03:47:46;;;;;;;17.80;10.52;;;7.60;31.20;;;;;;5110191;27;34458;-76
2022/03/29 03:50:12;;;;;;;22.50;10.35;;;7.60;31.20;;;;;;5126118;27;34202;-76
2022/03/29 03:52:38;;;;;;;20.98;10.85;;;7.60;31.30;;;;;;5127498;27;34121;-76
2022/03/29 03:55:05;;;;;;;19.67;10.60;;;7.50;31.30;;;;;;5126967;27;34212;-76
2022/03/29 03:57:31;;;;;;;18.70;11.00;;;7.50;31.50;;;;;;5126753;27;35695;-76
2022/03/29 03:59:57;;;;;;;20.98;10.40;;;7.50;31.50;;;;;;5126807;27;34222;-76
2022/03/29 04:02:23;;;;;;;20.98;10.65;;;7.50;31.60;;;;;;5126990;27;34350;-76
2022/03/29 04:04:49;;;;;;;18.25;10.05;;;7.40;31.60;;;;;;5145512;27;34537;-75
2022/03/29 04:07:15;;;;;;;20.02;10.43;;;7.40;31.50;;;;;;5109491;27;35794;-76
2022/03/29 04:09:42;;;;;;;17.73;10.45;;;7.40;31.70;;;;;;5126717;27;34206;-76
2022/03/29 04:12:08;;;;;;;19.13;9.90;;;7.40;31.60;;;;;;5126674;27;34589;-76
2022/03/29 04:14:36;;;;;;;20.08;10.18;;;7.40;31.70;;;;;;5126831;27;34130;-76
2022/03/29 04:17:04;;;;;;;21.15;10.43;;;7.30;31.60;;;;;;5125756;27;36689;-76
2022/03/29 04:19:30;;;;;;;17.42;9.85;;;7.30;31.80;;;;;;5126760;27;34137;-76
2022/03/29 04:21:56;;;;;;;20.45;10.93;;;7.30;31.70;;;;;;5126165;27;34387;-76
2022/03/29 04:24:22;;;;;;;20.40;10.60;;;7.30;31.70;;;;;;5126403;27;34196;-76
2022/03/29 04:26:48;;;;;;;21.73;10.68;;;7.20;31.80;;;;;;5109338;27;36126;-78
2022/03/29 04:29:14;;;;;;;18.23;10.63;;;7.30;31.90;;;;;;5109479;27;34360;-76
2022/03/29 04:31:40;;;;;;;18.55;11.10;;;7.20;31.80;;;;;;5109453;27;34066;-76
2022/03/29 04:34:06;;;;;;;17.13;10.27;;;7.20;32.00;;;;;;5126335;27;34125;-76
2022/03/29 04:36:32;;;;;;;21.05;10.80;;;7.10;32.10;;;;;;5109087;27;35869;-76
2022/03/29 04:38:58;;;;;;;18.45;10.48;;;7.10;32.10;;;;;;5126198;27;34145;-76
2022/03/29 04:41:25;;;;;;;20.17;11.32;;;7.10;31.90;;;;;;5144708;27;34224;-77
2022/03/29 04:43:51;;;;;;;21.70;11.20;;;7.00;31.90;;;;;;5126444;27;34264;-76
2022/03/29 04:46:17;;;;;;;19.85;11.00;;;7.00;32.00;;;;;;5108844;27;36565;-76
2022/03/29 04:48:44;;;;;;;20.52;10.98;;;7.00;32.20;;;;;;5126091;27;34714;-76
2022/03/29 04:51:11;;;;;;;19.27;11.52;;;7.00;32.20;;;;;;5125906;27;34497;-76
2022/03/29 04:53:37;;;;;;;18.30;9.98;;;6.90;32.50;;;;;;5125757;27;34213;-76
2022/03/29 04:56:04;;;;;;;22.88;11.32;;;6.90;32.60;;;;;;5144162;27;34178;-76
2022/03/29 04:58:30;;;;;;;21.58;10.73;;;6.90;32.60;;;;;;5108428;27;34135;-79
2022/03/29 05:00:58;;;;;;;21.02;11.88;;;6.80;32.50;;;;;;5124988;27;34087;-76
2022/03/29 05:03:24;;;;;;;22.70;11.57;;;6.80;32.70;;;;;;5088873;27;34243;-76
2022/03/29 05:05:50;;;;;;;20.48;11.82;;;6.80;32.70;;;;;;5105220;27;35802;-76
2022/03/29 05:08:16;;;;;;;19.45;10.68;;;6.70;32.80;;;;;;5125820;27;34267;-76
2022/03/29 05:10:42;;;;;;;21.80;11.70;;;6.70;32.90;;;;;;5125414;27;34257;-76
2022/03/29 05:13:09;;;;;;;24.27;12.07;;;6.70;32.90;;;;;;5144796;27;34318;-76
2022/03/29 05:15:35;;;;;;;23.25;12.15;;;6.70;32.80;;;;;;5125642;27;36531;-76
2022/03/29 05:18:02;;;;;;;18.65;11.02;;;6.60;32.90;;;;;;5125775;27;34447;-76
2022/03/29 05:20:28;;;;;;;23.80;11.93;;;6.60;33.00;;;;;;5125725;27;34200;-76
2022/03/29 05:22:56;;;;;;;21.13;10.82;;;6.60;33.10;;;;;;5125722;27;34432;-76
2022/03/29 05:25:23;;;;;;;24.38;12.18;;;6.60;33.00;;;;;;5108244;27;35658;-76
2022/03/29 05:27:51;;;;;;;18.25;10.90;;;6.60;32.90;;;;;;5108651;27;34146;-76
2022/03/29 05:30:17;;;;;;;20.23;11.35;;;6.60;33.00;;;;;;5124924;27;34144;-76
2022/03/29 05:32:43;;;;;;;23.50;12.10;;;6.60;33.10;;;;;;5144131;27;34142;-76
2022/03/29 05:35:11;;;;;;;23.02;11.02;;;6.60;33.20;;;;;;5143663;27;34244;-76
2022/03/29 05:37:38;;;;;;;24.52;12.32;;;6.60;33.90;;;;;;5125758;27;34190;-76
2022/03/29 05:40:07;;;;;;;23.48;11.77;;;6.60;33.30;;;;;;5089889;27;34172;-76
2022/03/29 05:42:42;;;;;;;23.33;12.82;;;6.60;33.40;;;;;;5121888;27;34609;-76
2022/03/29 05:45:10;;;;;;;22.10;12.55;;;6.70;34.80;;;;;;5123879;27;35231;-76
2022/03/29 05:50:17;;;;;;;21.92;12.20;;;6.70;33.60;;;;;;5142781;27;34307;-76
2022/03/29 05:52:43;;;;;;;22.10;12.50;;;6.70;34.00;;;;;;5143657;27;34345;-76
2022/03/29 05:55:09;;;;;;;28.83;13.18;;;6.80;34.00;;;;;;5107952;27;35557;-76
2022/03/29 05:57:36;;;;;;;23.00;12.88;;;6.80;34.00;;;;;;5136422;27;34063;-76
2022/03/29 06:00:02;;;;;;;23.63;13.65;;;6.90;33.80;;;;;;5144952;27;34061;-76
2022/03/29 06:02:29;;;;;;;27.27;13.50;;;7.00;33.90;;;;;;5126921;27;34542;-76
2022/03/29 06:04:55;;;;;;;25.48;12.93;;;7.00;33.80;;;;;;5144730;27;35328;-76
2022/03/29 06:07:39;;;;;;;26.98;13.75;;;7.10;34.00;;;;;;5125377;27;34225;-76
2022/03/29 06:10:06;;;;;;;23.58;13.93;;;7.10;37.20;;;;;;5111088;27;34266;-76
2022/03/29 06:12:34;;;;;;;23.98;13.90;;;7.10;34.10;;;;;;5129988;27;34110;-76
2022/03/29 06:15:03;;;;;;;26.10;13.52;;;7.20;33.80;;;;;;5148330;27;34350;-76
2022/03/29 06:17:29;;;;;;;28.35;14.57;;;7.30;34.00;;;;;;5113116;27;34135;-76
2022/03/29 06:19:55;;;;;;;22.95;12.75;;;7.40;33.80;;;;;;5130125;27;34047;-76
2022/03/29 06:22:22;;;;;;;28.38;13.77;;;7.50;33.80;;;;;;5112250;27;34472;-76
2022/03/29 06:24:49;;;;;;;23.95;14.00;;;7.50;33.80;;;;;;5129811;27;36585;-76
2022/03/29 06:27:16;;;;;;;27.48;13.80;;;7.60;33.80;;;;;;5148266;27;33990;-76
2022/03/29 06:29:42;;;;;;;28.45;14.52;;;7.60;33.60;;;;;;5111422;27;34149;-76
2022/03/29 06:32:08;;;;;;;24.52;13.50;;;7.70;33.70;;;;;;5105486;28;34316;-76
2022/03/29 06:34:34;;;;;;;27.38;14.13;;;7.80;33.80;;;;;;5106666;28;34446;-76
2022/03/29 06:37:00;;;;;;;27.60;15.25;;;7.90;33.70;;;;;;5105635;28;34172;-76
2022/03/29 06:39:26;;;;;;;26.88;14.38;;;8.00;34.40;;;;;;5088762;28;34300;-75
2022/03/29 06:44:38;;;;;;;29.17;15.10;;;8.20;33.60;;;;;;5106504;28;34191;-76
2022/03/29 06:47:06;;;;;;;26.40;13.68;;;8.30;33.40;;;;;;5088661;28;34393;-76
2022/03/29 06:49:32;;;;;;;25.65;14.25;;;8.40;33.40;;;;;;5106782;27;34391;-76
2022/03/29 06:51:58;;;;;;;23.48;13.10;;;8.50;33.30;;;;;;5104791;28;34055;-76
2022/03/29 06:54:24;;;;;;;24.58;14.05;;;8.60;33.30;;;;;;5106512;27;35346;-76
2022/03/29 06:56:50;;;;;;;31.38;14.45;;;8.80;33.20;;;;;;5105463;28;34213;-76
2022/03/29 06:59:16;;;;;;;24.10;14.02;;;8.90;33.20;;;;;;5088471;28;34312;-76
2022/03/29 07:01:42;;;;;;;27.15;13.85;;;9.00;33.10;;;;;;5105358;28;34132;-76
2022/03/29 07:04:09;;;;;;;27.40;14.77;;;9.20;33.00;;;;;;5104606;28;36748;-76
2022/03/29 07:06:35;;;;;;;29.98;16.05;;;9.40;32.90;;;;;;5105409;28;34230;-76
2022/03/29 07:11:43;;;;;;;30.20;15.25;;;9.60;32.80;;;;;;5104903;28;34326;-76
2022/03/29 07:14:14;;;;;;;25.63;13.98;;;9.70;32.70;;;;;;5105128;28;36284;-76
2022/03/29 07:16:42;;;;;;;23.60;13.13;;;9.80;32.60;;;;;;5106427;27;34104;-76
2022/03/29 07:19:09;;;;;;;26.40;14.35;;;9.90;32.70;;;;;;5105246;28;34280;-76
2022/03/29 07:21:38;;;;;;;24.83;14.23;;;10.00;32.40;;;;;;5105295;27;34148;-76
2022/03/29 07:24:05;;;;;;;27.52;14.18;;;10.10;32.40;;;;;;5104844;28;36472;-76
2022/03/29 07:26:31;;;;;;;26.90;13.98;;;10.20;32.20;;;;;;5088194;28;34186;-76
2022/03/29 07:28:57;;;;;;;27.40;14.60;;;10.20;32.20;;;;;;5104220;27;34324;-75
2022/03/29 07:31:24;;;;;;;26.00;13.60;;;10.30;32.20;;;;;;5088163;28;34067;-76
2022/03/29 07:33:50;;;;;;;29.42;14.27;;;10.40;32.10;;;;;;5105903;28;34260;-76
2022/03/29 07:36:16;;;;;;;24.75;14.05;;;10.40;31.90;;;;;;5104835;28;34048;-76
2022/03/29 07:38:42;;;;;;;31.35;14.25;;;10.50;31.90;;;;;;5104786;28;34182;-76
2022/03/29 07:41:08;;;;;;;25.85;14.02;;;10.60;31.80;;;;;;5104503;28;34074;-76
2022/03/29 07:43:33;;;;;;;24.83;13.98;;;10.70;31.70;;;;;;5104711;28;35965;-76
2022/03/29 07:46:00;;;;;;;28.60;15.38;;;10.90;31.60;;;;;;5104793;28;34002;-77
2022/03/29 07:48:26;;;;;;;28.33;14.15;;;11.00;31.60;;;;;;5088143;28;34317;-76
2022/03/29 07:50:52;;;;;;;23.52;12.82;;;11.20;31.40;;;;;;5104707;28;34699;-76
2022/03/29 07:53:21;;;;;;;26.30;14.75;;;11.30;31.20;;;;;;5104255;28;34205;-76
2022/03/29 07:55:47;;;;;;;28.13;14.65;;;11.60;31.10;;;;;;5104404;28;34397;-76
2022/03/29 07:58:13;;;;;;;30.15;16.40;;;11.70;30.80;;;;;;5104172;28;34042;-76
2022/03/29 08:00:39;;;;;;;28.65;14.45;;;11.80;30.50;;;;;;5106013;28;34097;-76
2022/03/29 08:03:09;;;;;;;26.42;15.63;;;12.00;30.20;;;;;;5105242;27;34268;-76
2022/03/29 08:05:36;;;;;;;29.50;16.08;;;12.10;30.30;;;;;;5104733;28;34162;-76
2022/03/29 08:08:03;;;;;;;30.05;15.93;;;12.30;30.00;;;;;;5105413;28;34090;-76
2022/03/29 08:10:30;;;;;;;28.63;15.35;;;12.40;29.90;;;;;;5106094;27;34380;-76
2022/03/29 08:12:59;;;;;;;30.42;14.95;;;12.60;29.80;;;;;;5104060;28;35678;-76
2022/03/29 08:15:26;;;;;;;25.73;15.23;;;12.80;29.60;;;;;;5105722;27;34293;-76
2022/03/29 08:17:53;;;;;;;28.00;14.55;;;12.90;29.30;;;;;;5104460;28;34017;-76
2022/03/29 08:20:20;;;;;;;29.02;15.40;;;13.10;29.20;;;;;;5104838;28;34093;-76
2022/03/29 08:22:46;;;;;;;29.70;15.80;;;13.30;29.00;;;;;;5104230;28;35197;-76
2022/03/29 08:25:14;;;;;;;26.42;15.55;;;13.40;28.60;;;;;;5103875;28;34249;-75
2022/03/29 08:27:41;;;;;;;27.88;15.32;;;13.60;28.30;;;;;;5104146;28;34327;-76
2022/03/29 08:30:09;;;;;;;27.17;14.95;;;13.70;28.10;;;;;;5140739;27;34034;-76
2022/03/29 08:32:36;;;;;;;32.60;16.60;;;13.90;27.90;;;;;;5093411;27;35903;-76
2022/03/29 08:35:06;;;;;;;29.08;16.75;;;14.10;27.80;;;;;;5146709;27;34092;-76
2022/03/29 08:37:35;;;;;;;31.58;16.75;;;14.30;27.70;;;;;;5128183;27;34360;-76
2022/03/29 08:40:03;;;;;;;30.83;15.50;;;14.50;27.30;;;;;;5128248;27;33992;-76
2022/03/29 08:42:29;;;;;;;27.92;15.57;;;14.80;27.00;;;;;;5146417;27;34163;-76
2022/03/29 08:44:55;;;;;;;32.22;16.45;;;14.90;26.90;;;;;;5146087;27;34085;-76
2022/03/29 08:47:22;;;;;;;31.48;16.90;;;15.00;26.50;;;;;;5146199;27;34111;-77
2022/03/29 08:49:49;;;;;;;32.92;16.50;;;15.10;26.20;;;;;;5127442;27;34437;-76
2022/03/29 08:52:20;;;;;;;37.13;17.02;;;15.20;26.00;;;;;;5127334;27;35716;-76
2022/03/29 08:54:47;;;;;;;27.98;16.73;;;15.40;25.80;;;;;;5127653;27;34366;-76
2022/03/29 08:57:14;;;;;;;32.05;15.77;;;15.60;25.50;;;;;;5110404;27;34347;-76
2022/03/29 08:59:41;;;;;;;29.63;16.50;;;15.70;25.20;;;;;;5146745;27;33967;-76
2022/03/29 09:02:10;;;;;;;34.25;15.88;;;15.90;25.00;;;;;;5127632;27;35635;-76
2022/03/29 09:04:36;;;;;;;29.83;16.05;;;16.20;24.70;;;;;;5127664;27;34258;-77
2022/03/29 09:07:03;;;;;;;27.75;15.82;;;16.30;24.20;;;;;;5143672;27;34690;-77
2022/03/29 09:09:36;;;;;;;27.25;14.95;;;16.40;23.70;;;;;;5107666;27;34547;-76
2022/03/29 09:12:20;;;;;;;28.20;14.65;;;16.70;22.90;;;;;;5079928;27;35575;-77
2022/03/29 09:15:02;;;;;;;27.92;15.88;;;16.80;20.60;;;;;;5127436;27;34179;-76
2022/03/29 09:17:34;;;;;;;29.95;15.23;;;17.00;20.00;;;;;;5146091;27;34074;-76
2022/03/29 09:20:16;;;;;;;29.23;14.93;;;17.10;21.50;;;;;;5126697;27;34628;-76
2022/03/29 09:22:47;;;;;;;29.92;16.75;;;17.20;21.50;;;;;;5123242;27;35743;-77
2022/03/29 09:25:18;;;;;;;26.10;14.73;;;17.40;20.50;;;;;;5106810;27;34249;-76
2022/03/29 09:27:53;;;;;;;35.58;15.27;;;17.50;20.50;;;;;;5106858;27;34109;-76
2022/03/29 09:30:21;;;;;;;23.58;14.55;;;17.60;20.10;;;;;;5137208;27;34322;-76
2022/03/29 09:32:58;;;;;;;33.20;14.23;;;17.70;20.70;;;;;;5126884;27;35839;-77
2022/03/29 09:35:25;;;;;;;27.50;14.77;;;17.80;19.30;;;;;;5127634;27;34196;-77
2022/03/29 09:37:51;;;;;;;27.85;14.65;;;17.80;20.10;;;;;;5145773;27;34289;-76
2022/03/29 09:40:17;;;;;;;27.50;15.77;;;17.80;20.00;;;;;;5110221;27;34178;-77
2022/03/29 09:43:00;;;;;;;30.42;15.40;;;17.80;19.80;;;;;;5126386;27;36017;-76
2022/03/29 09:45:43;;;;;;;29.60;14.65;;;17.80;17.20;;;;;;5149104;27;34149;-76
2022/03/29 09:48:34;;;;;;;29.50;14.02;;;17.80;17.60;;;;;;5114043;27;34377;-76
2022/03/29 09:51:18;;;;;;;29.17;14.95;;;17.90;18.10;;;;;;5149299;27;33999;-76
2022/03/29 09:53:51;;;;;;;31.48;15.20;;;17.90;17.40;;;;;;5130959;27;34078;-76
2022/03/29 09:56:24;;;;;;;27.10;14.95;;;18.00;19.20;;;;;;5131189;27;34237;-76
2022/03/29 09:59:05;;;;;;;30.95;14.73;;;18.10;19.20;;;;;;5149015;27;34441;-76
2022/03/29 10:01:31;;;;;;;30.38;14.52;;;18.20;16.40;;;;;;5097021;27;34279;-76
2022/03/29 10:04:01;;;;;;;26.20;14.27;;;18.20;18.90;;;;;;5148338;27;35446;-76
2022/03/29 10:06:30;;;;;;;29.02;14.65;;;18.30;18.70;;;;;;5130559;27;34062;-76
2022/03/29 10:11:43;;;;;;;24.35;13.88;;;18.50;17.90;;;;;;5126268;27;34225;-76
2022/03/29 10:14:12;;;;;;;26.33;14.27;;;18.50;18.40;;;;;;5129096;27;36099;-75
2022/03/29 10:16:39;;;;;;;26.45;14.15;;;18.50;17.70;;;;;;5113199;27;34142;-76
2022/03/29 10:19:06;;;;;;;26.05;14.30;;;18.60;17.80;;;;;;5130888;27;34168;-76
2022/03/29 10:21:34;;;;;;;31.45;15.30;;;18.70;17.80;;;;;;5131123;27;34176;-76
2022/03/29 10:24:01;;;;;;;34.50;15.52;;;18.80;17.40;;;;;;5129990;27;35759;-76
2022/03/29 10:26:27;;;;;;;27.38;14.98;;;18.90;17.60;;;;;;5113554;27;34344;-76
2022/03/29 10:28:53;;;;;;;31.30;15.52;;;19.00;17.40;;;;;;5130281;27;33973;-76
2022/03/29 10:31:33;;;;;;;25.23;14.38;;;19.10;17.20;;;;;;5130570;27;34470;-76
2022/03/29 10:34:18;;;;;;;26.08;14.35;;;19.20;15.30;;;;;;5113983;27;35695;-77
2022/03/29 10:37:08;;;;;;;24.40;13.45;;;19.40;14.00;;;;;;5130510;27;34227;-76
2022/03/29 10:39:46;;;;;;;28.65;14.20;;;19.40;13.40;;;;;;5130836;27;34282;-76
2022/03/29 10:42:37;;;;;;;29.77;15.70;;;19.60;14.50;;;;;;5113637;27;34044;-76
2022/03/29 10:45:15;;;;;;;25.35;14.60;;;19.70;14.10;;;;;;5146853;27;34326;-76
2022/03/29 10:47:45;;;;;;;28.92;14.70;;;19.80;15.50;;;;;;5093918;27;34165;-77
2022/03/29 10:50:12;;;;;;;31.77;14.45;;;20.00;15.50;;;;;;5129313;27;34249;-76
2022/03/29 10:52:40;;;;;;;26.27;14.90;;;20.00;15.10;;;;;;5112388;27;34453;-76
2022/03/29 10:55:20;;;;;;;26.63;15.15;;;20.10;15.20;;;;;;5128918;27;36562;-76
2022/03/29 10:58:03;;;;;;;27.88;15.57;;;20.20;12.00;;;;;;5113746;27;34375;-76
2022/03/29 11:00:31;;;;;;;28.60;14.80;;;20.30;12.40;;;;;;5139356;27;34176;-76
2022/03/29 11:03:14;;;;;;;27.58;14.35;;;20.40;14.80;;;;;;5148757;27;34427;-76
2022/03/29 11:06:11;;;;;;;25.30;15.27;;;20.50;11.30;;;;;;5129483;27;35907;-76
2022/03/29 11:08:39;;;;;;;29.88;16.35;;;20.60;12.00;;;;;;5129642;27;34110;-76
2022/03/29 11:11:06;;;;;;;33.15;15.88;;;20.60;13.60;;;;;;5113051;27;34063;-76
2022/03/29 11:13:37;;;;;;;29.13;15.55;;;20.60;13.50;;;;;;5129709;27;34018;-76
2022/03/29 11:16:27;;;;;;;31.17;15.40;;;20.60;13.10;;;;;;5111865;27;35921;-76
2022/03/29 11:18:53;;;;;;;29.35;16.08;;;20.70;9.70;;;;;;5129381;27;34247;-77
2022/03/29 11:21:35;;;;;;;30.77;16.23;;;20.80;14.00;;;;;;5129524;27;34214;-76
2022/03/29 11:24:03;;;;;;;29.00;15.15;;;21.00;11.20;;;;;;5128226;27;34155;-76
2022/03/29 11:26:29;;;;;;;32.97;16.63;;;21.10;13.40;;;;;;5109112;27;36029;-76
2022/03/29 11:28:58;;;;;;;34.53;16.95;;;21.20;13.30;;;;;;5144122;27;34579;-76
2022/03/29 11:31:33;;;;;;;29.27;16.15;;;21.30;12.90;;;;;;5129281;27;34074;-76
2022/03/29 11:33:59;;;;;;;31.35;15.30;;;21.30;10.30;;;;;;5129261;27;34372;-76
2022/03/29 11:36:25;;;;;;;34.08;16.52;;;21.40;12.80;;;;;;5147510;27;34390;-76
2022/03/29 11:38:50;;;;;;;30.58;16.00;;;21.30;12.50;;;;;;5129119;27;34127;-76
2022/03/29 11:41:22;;;;;;;29.05;15.90;;;21.30;12.40;;;;;;5128873;27;34105;-76
2022/03/29 11:44:00;;;;;;;34.88;16.13;;;21.30;10.90;;;;;;5129304;27;34479;-76
2022/03/29 11:46:51;;;;;;;33.22;16.35;;;21.30;8.90;;;;;;5112272;27;35691;-76
2022/03/29 11:49:18;;;;;;;29.40;16.15;;;21.30;8.90;;;;;;5147816;27;34027;-76
2022/03/29 11:52:02;;;;;;;31.27;16.13;;;21.30;11.30;;;;;;5129081;27;34296;-76
2022/03/29 11:54:28;;;;;;;34.40;16.75;;;21.30;8.30;;;;;;5129057;27;34527;-76
2022/03/29 11:56:53;;;;;;;30.73;15.45;;;21.20;11.80;;;;;;5146978;27;35368;-76
2022/03/29 11:59:19;;;;;;;32.40;15.38;;;21.30;12.00;;;;;;5129498;27;34108;-76
2022/03/29 12:01:45;;;;;;;29.80;16.05;;;21.50;11.70;;;;;;5111951;27;34035;-76
2022/03/29 12:04:12;;;;;;;32.10;15.70;;;21.60;11.50;;;;;;5128800;27;34060;-76
2022/03/29 12:06:48;;;;;;;24.55;15.07;;;21.70;11.30;;;;;;5146700;27;34341;-76
2022/03/29 12:09:21;;;;;;;28.90;16.40;;;21.70;9.30;;;;;;5128235;27;34148;-76
2022/03/29 12:11:47;;;;;;;26.20;14.93;;;21.80;9.40;;;;;;5128546;27;34487;-76
2022/03/29 12:14:18;;;;;;;29.13;15.25;;;21.90;11.40;;;;;;5128538;27;34079;-77
2022/03/29 12:16:48;;;;;;;29.90;15.73;;;22.10;9.80;;;;;;5146421;27;34429;-76
2022/03/29 12:19:17;;;;;;;28.92;15.77;;;22.00;10.20;;;;;;5128521;27;34152;-76
2022/03/29 12:21:48;;;;;;;33.05;15.13;;;22.10;10.50;;;;;;5146735;27;34095;-76
2022/03/29 12:24:15;;;;;;;25.92;15.73;;;22.20;10.10;;;;;;5146511;27;34181;-78
2022/03/29 12:26:45;;;;;;;33.10;15.52;;;22.20;10.50;;;;;;5112199;27;35846;-78
2022/03/29 12:29:13;;;;;;;28.08;15.00;;;22.20;9.80;;;;;;5146366;27;34432;-76
2022/03/29 12:31:40;;;;;;;30.92;16.60;;;22.20;10.40;;;;;;5110133;27;34305;-76
2022/03/29 12:34:07;;;;;;;26.40;14.68;;;22.40;10.10;;;;;;5143039;27;34279;-76
2022/03/29 12:36:33;;;;;;;27.25;15.32;;;22.50;10.40;;;;;;5106125;27;35625;-76
2022/03/29 12:39:02;;;;;;;28.25;15.68;;;22.50;10.40;;;;;;5123661;27;34263;-76
2022/03/29 12:41:52;;;;;;;31.38;15.60;;;22.50;9.90;;;;;;5127502;27;34299;-76
2022/03/29 12:44:37;;;;;;;29.73;15.85;;;22.60;7.30;;;;;;5110273;27;34084;-76
2022/03/29 12:47:04;;;;;;;28.88;15.15;;;22.60;7.70;;;;;;5117595;27;35541;-77
2022/03/29 12:49:31;;;;;;;29.45;15.93;;;22.60;10.00;;;;;;5146242;27;34248;-77
2022/03/29 12:52:00;;;;;;;30.88;15.18;;;22.60;10.10;;;;;;5145826;27;34170;-77
2022/03/29 12:54:40;;;;;;;27.17;14.77;;;22.70;10.00;;;;;;5127757;27;34102;-76
2022/03/29 12:57:09;;;;;;;26.17;13.98;;;22.70;7.90;;;;;;5127164;27;35787;-76
2022/03/29 12:59:40;;;;;;;29.23;15.57;;;22.60;9.60;;;;;;5146482;27;34497;-76
2022/03/29 13:02:15;;;;;;;32.20;15.00;;;22.60;9.50;;;;;;5111123;27;33997;-76
2022/03/29 13:04:46;;;;;;;26.52;14.30;;;22.50;8.70;;;;;;5110972;27;34084;-76